sensor_id;sensor_type;location;lat;lon;timestamp;P1;durP1;ratioP1;P2;durP2;ratioP2
33160;SDS011;19522;45.656;11.302;2022-08-30T00:01:29;16.40;;;11.65;;
33160;SDS011;19522;45.656;11.302;2022-08-30T00:03:56;18.75;;;11.98;;
33160;SDS011;19522;45.656;11.302;2022-08-30T00:06:24;17.77;;;12.80;;
33160;SDS011;19522;45.656;11.302;2022-08-30T00:08:51;14.23;;;12.05;;
33160;SDS011;19522;45.656;11.302;2022-08-30T00:11:19;16.20;;;11.85;;
33160;SDS011;19522;45.656;11.302;2022-08-30T00:13:47;16.00;;;11.82;;
33160;SDS011;19522;45.656;11.302;2022-08-30T00:16:15;14.43;;;11.48;;
33160;SDS011;19522;45.656;11.302;2022-08-30T00:18:41;16.13;;;11.48;;
33160;SDS011;19522;45.656;11.302;2022-08-30T00:21:07;15.68;;;12.45;;
33160;SDS011;19522;45.656;11.302;2022-08-30T00:23:34;14.70;;;11.55;;
33160;SDS011;19522;45.656;11.302;2022-08-30T00:26:00;15.43;;;11.07;;
33160;SDS011;19522;45.656;11.302;2022-08-30T00:28:26;17.27;;;11.77;;
33160;SDS011;19522;45.656;11.302;2022-08-30T00:30:52;14.35;;;11.95;;
33160;SDS011;19522;45.656;11.302;2022-08-30T00:33:18;14.93;;;12.25;;
33160;SDS011;19522;45.656;11.302;2022-08-30T00:35:44;14.27;;;12.63;;
33160;SDS011;19522;45.656;11.302;2022-08-30T00:38:10;14.13;;;11.88;;
33160;SDS011;19522;45.656;11.302;2022-08-30T00:40:38;15.60;;;12.43;;
33160;SDS011;19522;45.656;11.302;2022-08-30T00:43:06;16.13;;;12.73;;
33160;SDS011;19522;45.656;11.302;2022-08-30T00:45:36;16.10;;;13.07;;
33160;SDS011;19522;45.656;11.302;2022-08-30T00:48:02;16.20;;;13.82;;
33160;SDS011;19522;45.656;11.302;2022-08-30T00:50:32;17.05;;;13.27;;
33160;SDS011;19522;45.656;11.302;2022-08-30T00:53:02;17.27;;;13.05;;
33160;SDS011;19522;45.656;11.302;2022-08-30T00:55:31;14.55;;;12.82;;
33160;SDS011;19522;45.656;11.302;2022-08-30T00:57:59;14.93;;;11.52;;
33160;SDS011;19522;45.656;11.302;2022-08-30T01:00:29;14.75;;;12.45;;
33160;SDS011;19522;45.656;11.302;2022-08-30T01:02:55;15.93;;;12.30;;
33160;SDS011;19522;45.656;11.302;2022-08-30T01:05:21;16.17;;;12.57;;
33160;SDS011;19522;45.656;11.302;2022-08-30T01:07:48;16.15;;;14.02;;
33160;SDS011;19522;45.656;11.302;2022-08-30T01:10:14;16.08;;;12.02;;
33160;SDS011;19522;45.656;11.302;2022-08-30T01:12:41;14.93;;;12.50;;
33160;SDS011;19522;45.656;11.302;2022-08-30T01:15:09;19.17;;;12.85;;
33160;SDS011;19522;45.656;11.302;2022-08-30T01:17:38;15.10;;;13.18;;
33160;SDS011;19522;45.656;11.302;2022-08-30T01:20:12;16.60;;;12.35;;
33160;SDS011;19522;45.656;11.302;2022-08-30T01:25:13;17.70;;;14.32;;
33160;SDS011;19522;45.656;11.302;2022-08-30T01:27:43;17.08;;;13.93;;
33160;SDS011;19522;45.656;11.302;2022-08-30T01:30:14;19.65;;;12.68;;
33160;SDS011;19522;45.656;11.302;2022-08-30T01:32:41;16.13;;;13.15;;
33160;SDS011;19522;45.656;11.302;2022-08-30T01:35:09;13.15;;;11.75;;
33160;SDS011;19522;45.656;11.302;2022-08-30T01:37:39;15.77;;;13.57;;
33160;SDS011;19522;45.656;11.302;2022-08-30T01:40:05;16.63;;;13.88;;
33160;SDS011;19522;45.656;11.302;2022-08-30T01:42:33;17.20;;;13.50;;
33160;SDS011;19522;45.656;11.302;2022-08-30T01:44:59;16.42;;;12.57;;
33160;SDS011;19522;45.656;11.302;2022-08-30T01:47:25;16.50;;;14.40;;
33160;SDS011;19522;45.656;11.302;2022-08-30T01:49:51;17.77;;;13.65;;
33160;SDS011;19522;45.656;11.302;2022-08-30T01:52:17;19.40;;;14.38;;
33160;SDS011;19522;45.656;11.302;2022-08-30T01:54:43;15.38;;;12.40;;
33160;SDS011;19522;45.656;11.302;2022-08-30T01:57:10;17.45;;;13.70;;
33160;SDS011;19522;45.656;11.302;2022-08-30T01:59:42;16.13;;;12.65;;
33160;SDS011;19522;45.656;11.302;2022-08-30T02:02:11;16.83;;;12.98;;
33160;SDS011;19522;45.656;11.302;2022-08-30T02:04:42;16.27;;;12.88;;
33160;SDS011;19522;45.656;11.302;2022-08-30T02:07:08;14.35;;;12.52;;
33160;SDS011;19522;45.656;11.302;2022-08-30T02:09:34;16.15;;;11.68;;
33160;SDS011;19522;45.656;11.302;2022-08-30T02:12:01;13.07;;;11.68;;
33160;SDS011;19522;45.656;11.302;2022-08-30T02:14:30;15.70;;;12.77;;
33160;SDS011;19522;45.656;11.302;2022-08-30T02:16:55;13.90;;;12.40;;
33160;SDS011;19522;45.656;11.302;2022-08-30T02:19:21;19.13;;;13.75;;
33160;SDS011;19522;45.656;11.302;2022-08-30T02:21:46;13.00;;;11.60;;
33160;SDS011;19522;45.656;11.302;2022-08-30T02:24:12;13.25;;;11.60;;
33160;SDS011;19522;45.656;11.302;2022-08-30T02:26:37;15.43;;;12.20;;
33160;SDS011;19522;45.656;11.302;2022-08-30T02:29:03;18.02;;;13.18;;
33160;SDS011;19522;45.656;11.302;2022-08-30T02:31:30;14.07;;;11.43;;
33160;SDS011;19522;45.656;11.302;2022-08-30T02:33:56;18.10;;;11.23;;
33160;SDS011;19522;45.656;11.302;2022-08-30T02:36:21;15.55;;;10.85;;
33160;SDS011;19522;45.656;11.302;2022-08-30T02:38:48;12.90;;;11.20;;
33160;SDS011;19522;45.656;11.302;2022-08-30T02:41:14;14.43;;;11.75;;
33160;SDS011;19522;45.656;11.302;2022-08-30T02:43:40;19.58;;;13.52;;
33160;SDS011;19522;45.656;11.302;2022-08-30T02:46:06;18.30;;;13.23;;
33160;SDS011;19522;45.656;11.302;2022-08-30T02:48:32;19.88;;;14.15;;
33160;SDS011;19522;45.656;11.302;2022-08-30T02:51:03;17.25;;;13.20;;
33160;SDS011;19522;45.656;11.302;2022-08-30T02:53:30;15.25;;;12.85;;
33160;SDS011;19522;45.656;11.302;2022-08-30T02:55:56;15.52;;;13.38;;
33160;SDS011;19522;45.656;11.302;2022-08-30T02:58:21;20.83;;;15.23;;
33160;SDS011;19522;45.656;11.302;2022-08-30T03:00:47;17.58;;;15.18;;
33160;SDS011;19522;45.656;11.302;2022-08-30T03:03:12;19.52;;;14.52;;
33160;SDS011;19522;45.656;11.302;2022-08-30T03:05:37;16.30;;;13.48;;
33160;SDS011;19522;45.656;11.302;2022-08-30T03:08:03;13.32;;;11.27;;
33160;SDS011;19522;45.656;11.302;2022-08-30T03:10:28;14.98;;;10.90;;
33160;SDS011;19522;45.656;11.302;2022-08-30T03:12:54;16.42;;;10.10;;
33160;SDS011;19522;45.656;11.302;2022-08-30T03:15:20;12.57;;;9.80;;
33160;SDS011;19522;45.656;11.302;2022-08-30T03:17:49;9.77;;;8.07;;
33160;SDS011;19522;45.656;11.302;2022-08-30T03:20:16;9.02;;;7.32;;
33160;SDS011;19522;45.656;11.302;2022-08-30T03:22:41;8.80;;;6.07;;
33160;SDS011;19522;45.656;11.302;2022-08-30T03:25:07;9.95;;;6.10;;
33160;SDS011;19522;45.656;11.302;2022-08-30T03:27:33;7.68;;;5.93;;
33160;SDS011;19522;45.656;11.302;2022-08-30T03:29:58;7.18;;;4.80;;
33160;SDS011;19522;45.656;11.302;2022-08-30T03:32:24;6.38;;;4.22;;
33160;SDS011;19522;45.656;11.302;2022-08-30T03:34:49;4.65;;;3.17;;
33160;SDS011;19522;45.656;11.302;2022-08-30T03:37:15;3.53;;;2.67;;
33160;SDS011;19522;45.656;11.302;2022-08-30T03:39:41;4.82;;;3.20;;
33160;SDS011;19522;45.656;11.302;2022-08-30T03:42:09;9.98;;;4.35;;
33160;SDS011;19522;45.656;11.302;2022-08-30T03:44:35;6.03;;;3.35;;
33160;SDS011;19522;45.656;11.302;2022-08-30T03:47:01;4.05;;;2.70;;
33160;SDS011;19522;45.656;11.302;2022-08-30T03:49:27;3.92;;;2.67;;
33160;SDS011;19522;45.656;11.302;2022-08-30T03:51:52;3.65;;;2.35;;
33160;SDS011;19522;45.656;11.302;2022-08-30T03:54:18;4.13;;;1.90;;
33160;SDS011;19522;45.656;11.302;2022-08-30T03:56:43;3.13;;;1.65;;
33160;SDS011;19522;45.656;11.302;2022-08-30T03:59:09;1.92;;;1.30;;
33160;SDS011;19522;45.656;11.302;2022-08-30T04:01:35;2.83;;;1.52;;
33160;SDS011;19522;45.656;11.302;2022-08-30T04:04:03;2.13;;;1.30;;
33160;SDS011;19522;45.656;11.302;2022-08-30T04:06:29;4.38;;;1.40;;
33160;SDS011;19522;45.656;11.302;2022-08-30T04:08:54;3.05;;;1.55;;
33160;SDS011;19522;45.656;11.302;2022-08-30T04:11:20;3.20;;;1.27;;
33160;SDS011;19522;45.656;11.302;2022-08-30T04:13:46;4.07;;;1.25;;
33160;SDS011;19522;45.656;11.302;2022-08-30T04:16:13;3.88;;;1.17;;
33160;SDS011;19522;45.656;11.302;2022-08-30T04:18:39;2.88;;;0.95;;
33160;SDS011;19522;45.656;11.302;2022-08-30T04:21:05;2.05;;;1.08;;
33160;SDS011;19522;45.656;11.302;2022-08-30T04:23:31;4.28;;;1.23;;
33160;SDS011;19522;45.656;11.302;2022-08-30T04:25:56;2.13;;;1.10;;
33160;SDS011;19522;45.656;11.302;2022-08-30T04:28:22;2.65;;;1.20;;
33160;SDS011;19522;45.656;11.302;2022-08-30T04:30:47;3.60;;;1.50;;
33160;SDS011;19522;45.656;11.302;2022-08-30T04:33:13;4.13;;;1.17;;
33160;SDS011;19522;45.656;11.302;2022-08-30T04:35:42;1.35;;;1.00;;
33160;SDS011;19522;45.656;11.302;2022-08-30T04:38:10;3.63;;;1.50;;
33160;SDS011;19522;45.656;11.302;2022-08-30T04:40:37;2.65;;;1.35;;
33160;SDS011;19522;45.656;11.302;2022-08-30T04:43:06;3.97;;;1.23;;
33160;SDS011;19522;45.656;11.302;2022-08-30T04:45:32;3.80;;;1.40;;
33160;SDS011;19522;45.656;11.302;2022-08-30T04:47:57;2.92;;;1.45;;
33160;SDS011;19522;45.656;11.302;2022-08-30T04:50:23;2.40;;;1.20;;
33160;SDS011;19522;45.656;11.302;2022-08-30T04:52:51;2.97;;;1.52;;
33160;SDS011;19522;45.656;11.302;2022-08-30T04:55:16;5.65;;;1.60;;
33160;SDS011;19522;45.656;11.302;2022-08-30T04:57:42;4.65;;;1.30;;
33160;SDS011;19522;45.656;11.302;2022-08-30T05:00:11;4.22;;;1.52;;
33160;SDS011;19522;45.656;11.302;2022-08-30T05:02:38;2.97;;;1.50;;
33160;SDS011;19522;45.656;11.302;2022-08-30T05:05:05;2.60;;;1.20;;
33160;SDS011;19522;45.656;11.302;2022-08-30T05:07:53;2.63;;;1.70;;
33160;SDS011;19522;45.656;11.302;2022-08-30T05:10:18;4.47;;;1.77;;
33160;SDS011;19522;45.656;11.302;2022-08-30T05:12:44;4.50;;;2.03;;
33160;SDS011;19522;45.656;11.302;2022-08-30T05:15:10;3.30;;;1.65;;
33160;SDS011;19522;45.656;11.302;2022-08-30T05:17:39;3.15;;;1.70;;
33160;SDS011;19522;45.656;11.302;2022-08-30T05:20:08;4.03;;;1.80;;
33160;SDS011;19522;45.656;11.302;2022-08-30T05:22:35;3.88;;;2.20;;
33160;SDS011;19522;45.656;11.302;2022-08-30T05:25:02;3.05;;;1.70;;
33160;SDS011;19522;45.656;11.302;2022-08-30T05:27:29;4.60;;;2.00;;
33160;SDS011;19522;45.656;11.302;2022-08-30T05:29:54;4.57;;;1.77;;
33160;SDS011;19522;45.656;11.302;2022-08-30T05:32:20;2.95;;;1.58;;
33160;SDS011;19522;45.656;11.302;2022-08-30T05:34:45;4.70;;;1.83;;
33160;SDS011;19522;45.656;11.302;2022-08-30T05:37:11;2.42;;;1.38;;
33160;SDS011;19522;45.656;11.302;2022-08-30T05:39:36;3.42;;;1.85;;
33160;SDS011;19522;45.656;11.302;2022-08-30T05:42:02;2.45;;;1.50;;
33160;SDS011;19522;45.656;11.302;2022-08-30T05:44:27;4.40;;;2.10;;
33160;SDS011;19522;45.656;11.302;2022-08-30T05:46:53;3.08;;;1.80;;
33160;SDS011;19522;45.656;11.302;2022-08-30T05:49:18;4.00;;;2.17;;
33160;SDS011;19522;45.656;11.302;2022-08-30T05:51:44;2.42;;;1.65;;
33160;SDS011;19522;45.656;11.302;2022-08-30T05:54:10;2.78;;;1.42;;
33160;SDS011;19522;45.656;11.302;2022-08-30T05:56:38;4.28;;;1.88;;
33160;SDS011;19522;45.656;11.302;2022-08-30T05:59:06;7.63;;;1.90;;
33160;SDS011;19522;45.656;11.302;2022-08-30T06:01:34;3.38;;;1.65;;
33160;SDS011;19522;45.656;11.302;2022-08-30T06:04:02;3.53;;;1.25;;
33160;SDS011;19522;45.656;11.302;2022-08-30T06:06:29;2.83;;;1.60;;
33160;SDS011;19522;45.656;11.302;2022-08-30T06:08:56;2.10;;;1.20;;
33160;SDS011;19522;45.656;11.302;2022-08-30T06:11:24;3.83;;;1.30;;
33160;SDS011;19522;45.656;11.302;2022-08-30T06:13:51;3.90;;;1.63;;
33160;SDS011;19522;45.656;11.302;2022-08-30T06:16:18;2.53;;;1.42;;
33160;SDS011;19522;45.656;11.302;2022-08-30T06:18:45;6.07;;;1.83;;
33160;SDS011;19522;45.656;11.302;2022-08-30T06:21:21;3.45;;;1.73;;
33160;SDS011;19522;45.656;11.302;2022-08-30T06:23:49;2.63;;;1.52;;
33160;SDS011;19522;45.656;11.302;2022-08-30T06:26:15;3.58;;;1.30;;
33160;SDS011;19522;45.656;11.302;2022-08-30T06:28:40;2.60;;;1.33;;
33160;SDS011;19522;45.656;11.302;2022-08-30T06:31:07;5.05;;;1.70;;
33160;SDS011;19522;45.656;11.302;2022-08-30T06:33:33;4.05;;;1.92;;
33160;SDS011;19522;45.656;11.302;2022-08-30T06:36:03;7.57;;;1.95;;
33160;SDS011;19522;45.656;11.302;2022-08-30T06:38:30;1.85;;;1.27;;
33160;SDS011;19522;45.656;11.302;2022-08-30T06:40:56;5.70;;;1.35;;
33160;SDS011;19522;45.656;11.302;2022-08-30T06:43:21;2.20;;;1.35;;
33160;SDS011;19522;45.656;11.302;2022-08-30T06:45:47;2.60;;;1.27;;
33160;SDS011;19522;45.656;11.302;2022-08-30T06:48:13;4.00;;;1.40;;
33160;SDS011;19522;45.656;11.302;2022-08-30T06:50:38;2.70;;;1.63;;
33160;SDS011;19522;45.656;11.302;2022-08-30T06:53:06;2.70;;;1.48;;
33160;SDS011;19522;45.656;11.302;2022-08-30T06:55:31;2.85;;;1.40;;
33160;SDS011;19522;45.656;11.302;2022-08-30T06:57:58;2.75;;;1.38;;
33160;SDS011;19522;45.656;11.302;2022-08-30T07:00:24;5.00;;;1.20;;
33160;SDS011;19522;45.656;11.302;2022-08-30T07:02:50;3.20;;;1.00;;
33160;SDS011;19522;45.656;11.302;2022-08-30T07:05:17;3.25;;;0.93;;
33160;SDS011;19522;45.656;11.302;2022-08-30T07:07:46;2.75;;;1.10;;
33160;SDS011;19522;45.656;11.302;2022-08-30T07:10:12;1.63;;;0.98;;
33160;SDS011;19522;45.656;11.302;2022-08-30T07:12:38;23.83;;;2.95;;
33160;SDS011;19522;45.656;11.302;2022-08-30T07:15:05;2.00;;;1.35;;
33160;SDS011;19522;45.656;11.302;2022-08-30T07:17:32;4.35;;;1.10;;
